Thursday, July 19, 2018, 1:32 PM EDT
Back to Local

KMIV, Millville Municipal Airport

Location: Millville, NJ, United States Lat: 39.367
Local Time: 1:32 PM EDT (17:32 GMT) Lon: -75.083
Time Zone: US/Eastern Elev: 85 ft

Show me the last for .
Show Decoded

2018-07-19 12:54 METAR KMIV 191654Z AUTO 10SM CLR 28/09 A3008 RMK AO2 SLP186 T02830089 =
2018-07-19 11:54 METAR KMIV 191554Z AUTO 02006KT 10SM CLR 27/08 A3009 RMK AO2 SLP189 T02720083 =
2018-07-19 10:54 METAR KMIV 191454Z AUTO 00000KT 10SM CLR 26/12 A3010 RMK AO2 SLP191 T02560117
                 51009 =
2018-07-19 09:54 METAR KMIV 191354Z AUTO 34004KT 10SM CLR 25/12 A3009 RMK AO2 SLP188 T02500117 =
2018-07-19 08:54 METAR KMIV 191254Z AUTO 02004KT 10SM CLR 23/13 A3009 RMK AO2 SLP186 T02330128 =
2018-07-19 07:54 METAR KMIV 191154Z AUTO 01005KT 10SM CLR 21/12 A3007 RMK AO2 SLP182 60000
                 T02060122 10217 20167 53013 $ =
2018-07-19 06:54 METAR KMIV 191054Z AUTO 34005KT 10SM CLR 18/13 A3006 RMK AO2 RAB0959E08 SLP176
                 P0000 T01830128 $ =
2018-07-19 05:54 METAR KMIV 190954Z AUTO 36004KT 10SM CLR 17/13 A3005 RMK AO2 SLP173 T01670128 $
                 =
2018-07-19 04:54 METAR KMIV 190854Z AUTO 35004KT 10SM CLR 17/13 A3003 RMK AO2 SLP169 T01720128
                 51008 $ =
2018-07-19 03:54 METAR KMIV 190754Z AUTO 34005KT 10SM CLR 18/14 A3003 RMK AO2 SLP168 T01830139 $
                 =
2018-07-19 02:54 METAR KMIV 190654Z AUTO 34005KT 10SM CLR 19/14 A3002 RMK AO2 SLP165 T01890144 $
                 =
2018-07-19 01:54 METAR KMIV 190554Z AUTO 03004KT 10SM CLR 22/13 A3001 RMK AO2 SLP161 60000
                 T02170133 10256 20194 51014 $ =
2018-07-19 00:54 METAR KMIV 190454Z AUTO 04005KT 10SM CLR 23/14 A3000 RMK AO2 SLP156 T02280144 $
                 =
2018-07-18 23:54 METAR KMIV 190354Z AUTO 34005KT 10SM SCT075 20/18 A2999 RMK AO2 SLP152 T02000183
                 $ =
2018-07-18 22:54 METAR KMIV 190254Z AUTO 28003KT 10SM BKN080 20/18 A2997 RMK AO2 SLP146 60000
                 T02000183 51012 $ =
2018-07-18 21:54 METAR KMIV 190154Z AUTO 00000KT 10SM SCT080 22/19 A2996 RMK AO2 SLP145 T02170189
                 $ =
2018-07-18 20:54 METAR KMIV 190054Z AUTO 26003KT 10SM CLR 23/18 A2994 RMK AO2 RAE2357 SLP137
                 P0000 T02280178 $ =
2018-07-18 19:54 METAR KMIV 182354Z AUTO 00000KT 10SM -RA FEW085 26/18 A2993 RMK AO2 RAB40 SLPNO
                 P0000 60000 T02560183 10306 20256 53012 $ =
2018-07-18 18:54 METAR KMIV 182254Z AUTO 19005KT 10SM BKN070 OVC085 27/18 A2991 RMK AO2 SLPNO
                 T02670178 =
2018-07-18 17:54 METAR KMIV 182154Z AUTO 31005KT 10SM FEW070 SCT095 29/16 A2989 RMK AO2 SLPNO
                 T02940156 =
2018-07-18 16:54 METAR KMIV 182054Z AUTO 31006KT 10SM SCT090 29/16 A2990 RMK AO2 SLPNO T02890161
                 58003 =
2018-07-18 15:54 METAR KMIV 181954Z AUTO 36010KT 10SM FEW090 30/16 A2990 RMK AO2 SLPNO T03000156
                 =
2018-07-18 14:54 METAR KMIV 181854Z AUTO 33004KT 10SM CLR 29/15 A2990 RMK AO2 SLPNO T02890150 =
2018-07-18 13:54 METAR KMIV 181754Z AUTO 05006KT 10SM SCT050 28/16 A2990 RMK AO2 SLPNO T02830156
                 10294 20222 55003 =

Support USWX by starting your Amazon purchase here.